ESNU/UME METAR and TAF weather

Enter ICAO airport designator
Station Type Date Time Source
ESNU METAR 2022/01/29 10:20 UTC NOAA

ESNU 291020Z 20007KT 9999 OVC011 00/M01 Q0983


Station Type Date Time Source
ESNU Decoded METAR 2022/01/29 10:20 UTC NOAA

Umea Flygplats, Sweden (ESNU) 63-48N 020-17E 14M
Jan 29, 2022 - 05:20 AM EST / 2022.01.29 1020 UTC
Wind: from the SSW (200 degrees) at 8 MPH (7 KT):0
Visibility: greater than 7 mile(s):0
Sky conditions: overcast
Temperature: 32 F (0 C)
Windchill: 24 F (-4 C):1
Dew Point: 30 F (-1 C)
Relative Humidity: 92%
Pressure (altimeter): 29.03 in. Hg (0983 hPa)
ob: ESNU 291020Z 20007KT 9999 OVC011 00/M01 Q0983
cycle: 10

Station Type Date Time Source
ESNU TAF 2019/10/24 00:55 UTC NOAA

TAF
AMD ESNU 242348Z 2500/2524 16003KT 0200 FG VV002 PROB40 2500/2509 8000 -RA BKN005

Example: see airport list